createdAt,value
2018-07-20T00:00:09.168Z,8.50
2018-07-20T00:02:37.556Z,10.33
2018-07-20T00:05:06.638Z,10.60
2018-07-20T00:07:35.088Z,9.20
2018-07-20T00:10:03.529Z,8.80
2018-07-20T00:12:32.000Z,10.80
2018-07-20T00:15:00.504Z,11.60
2018-07-20T00:17:29.007Z,9.13
2018-07-20T00:19:57.416Z,11.40
2018-07-20T00:22:25.880Z,9.20
2018-07-20T00:24:54.315Z,8.53
2018-07-20T00:27:22.779Z,8.03
2018-07-20T00:29:51.187Z,7.93
2018-07-20T00:32:19.627Z,8.20
2018-07-20T00:34:48.076Z,7.97
2018-07-20T00:37:16.489Z,8.13
2018-07-20T00:39:44.900Z,9.13
2018-07-20T00:42:13.379Z,12.13
2018-07-20T00:44:41.818Z,9.83
2018-07-20T00:47:10.232Z,24.93
2018-07-20T00:49:38.640Z,10.20
2018-07-20T00:52:07.168Z,8.73
2018-07-20T00:54:35.576Z,12.90
2018-07-20T00:57:04.032Z,10.13
2018-07-20T00:59:32.407Z,9.17
2018-07-20T01:02:00.836Z,9.40
2018-07-20T01:04:29.286Z,8.53
2018-07-20T01:06:57.708Z,8.77
2018-07-20T01:09:26.232Z,8.93
2018-07-20T01:11:54.832Z,9.37
2018-07-20T01:14:23.267Z,8.13
2018-07-20T01:16:52.008Z,7.97
2018-07-20T01:19:20.624Z,9.67
2018-07-20T01:21:49.071Z,10.17
2018-07-20T01:24:17.488Z,9.70
2018-07-20T01:26:45.879Z,10.27
2018-07-20T01:29:14.303Z,10.63
2018-07-20T01:31:42.801Z,10.40
2018-07-20T01:34:11.208Z,11.23
2018-07-20T01:36:39.679Z,8.97
2018-07-20T01:39:09.056Z,10.00
2018-07-20T01:41:37.747Z,9.40
2018-07-20T01:44:06.227Z,11.03
2018-07-20T01:46:34.656Z,9.87
2018-07-20T01:49:03.078Z,12.10
2018-07-20T01:51:31.487Z,11.07
2018-07-20T01:53:59.883Z,10.53
2018-07-20T01:56:28.415Z,11.80
2018-07-20T01:58:56.847Z,11.23
2018-07-20T02:01:25.056Z,10.90
2018-07-20T02:03:54.432Z,10.30
2018-07-20T02:06:22.890Z,11.80
2018-07-20T02:08:51.319Z,10.63
2018-07-20T02:11:19.744Z,15.60
2018-07-20T02:13:48.164Z,12.43
2018-07-20T02:16:16.602Z,16.17
2018-07-20T02:18:44.995Z,10.57
2018-07-20T02:21:13.396Z,13.17
2018-07-20T02:23:41.830Z,10.77
2018-07-20T02:26:10.371Z,10.80
2018-07-20T02:28:38.791Z,10.63
2018-07-20T02:31:07.607Z,10.40
2018-07-20T02:33:36.139Z,10.27
2018-07-20T02:36:04.574Z,12.47
2018-07-20T02:38:32.988Z,10.40
2018-07-20T02:41:01.425Z,11.43
2018-07-20T02:43:29.803Z,10.87
2018-07-20T02:45:58.263Z,11.77
2018-07-20T02:48:26.668Z,10.60
2018-07-20T02:50:55.296Z,9.60
2018-07-20T02:53:23.754Z,9.90
2018-07-20T02:55:52.143Z,10.10
2018-07-20T02:58:20.664Z,10.83
2018-07-20T03:00:49.216Z,11.13
2018-07-20T03:03:17.640Z,10.50
2018-07-20T03:05:46.176Z,10.23
2018-07-20T03:08:14.593Z,10.27
2018-07-20T03:10:43.017Z,10.20
2018-07-20T03:13:11.412Z,10.50
2018-07-20T03:15:39.836Z,10.57
2018-07-20T03:18:08.228Z,11.77
2018-07-20T03:20:36.672Z,11.90
2018-07-20T03:23:05.246Z,10.00
2018-07-20T03:25:33.721Z,15.03
2018-07-20T03:28:02.212Z,10.60
2018-07-20T03:30:30.768Z,9.93
2018-07-20T03:32:59.350Z,15.23
2018-07-20T03:35:28.092Z,11.13
2018-07-20T03:37:56.493Z,12.13
2018-07-20T03:40:25.423Z,12.80
2018-07-20T03:42:53.963Z,9.80
2018-07-20T03:45:22.416Z,10.60
2018-07-20T03:47:50.831Z,10.80
2018-07-20T03:50:19.447Z,8.70
2018-07-20T03:52:48.104Z,9.80
2018-07-20T03:55:16.520Z,14.27
2018-07-20T03:57:44.946Z,12.07
2018-07-20T04:00:13.367Z,10.03
2018-07-20T04:02:41.839Z,9.43
2018-07-20T04:05:10.293Z,9.27
2018-07-20T04:07:38.751Z,10.10
2018-07-20T04:10:07.385Z,10.10
2018-07-20T04:12:35.757Z,9.20
2018-07-20T04:15:04.256Z,9.90
2018-07-20T04:17:37.867Z,11.00
2018-07-20T04:20:06.755Z,9.97
2018-07-20T04:22:35.213Z,9.30
2018-07-20T04:25:03.738Z,11.43
2018-07-20T04:27:32.274Z,8.67
2018-07-20T04:30:00.682Z,9.90
2018-07-20T04:32:29.135Z,9.70
2018-07-20T04:34:57.646Z,10.90
2018-07-20T04:37:26.313Z,13.70
2018-07-20T04:39:54.831Z,11.10
2018-07-20T04:42:23.299Z,9.20
2018-07-20T04:44:51.709Z,10.30
2018-07-20T04:47:20.125Z,9.33
2018-07-20T04:49:48.644Z,9.93
2018-07-20T04:52:17.048Z,9.60
2018-07-20T04:54:45.791Z,12.20
2018-07-20T04:57:14.252Z,15.53
2018-07-20T04:59:42.678Z,12.40
2018-07-20T05:02:11.096Z,11.70
2018-07-20T05:04:39.502Z,9.90
2018-07-20T05:07:08.090Z,12.07
2018-07-20T05:09:36.549Z,12.33
2018-07-20T05:12:05.162Z,11.17
2018-07-20T05:14:33.639Z,11.37
2018-07-20T05:17:02.020Z,13.33
2018-07-20T05:19:30.535Z,15.40
2018-07-20T05:21:58.974Z,13.73
2018-07-20T05:24:27.471Z,11.03
2018-07-20T05:26:55.995Z,10.60
2018-07-20T05:29:24.472Z,11.37
2018-07-20T05:31:52.943Z,15.10
2018-07-20T05:34:21.420Z,10.00
2018-07-20T05:36:49.971Z,8.97
2018-07-20T05:39:18.432Z,9.80
2018-07-20T05:41:46.907Z,11.00
2018-07-20T05:44:15.315Z,10.97
2018-07-20T05:46:43.723Z,9.73
2018-07-20T05:49:12.145Z,11.43
2018-07-20T05:51:40.579Z,10.87
2018-07-20T05:54:09.124Z,10.80
2018-07-20T05:56:37.544Z,11.83
2018-07-20T05:59:05.969Z,10.57
2018-07-20T06:01:34.367Z,10.70
2018-07-20T06:04:02.825Z,12.77
2018-07-20T06:06:31.209Z,12.10
2018-07-20T06:08:59.636Z,12.30
2018-07-20T06:11:29.320Z,12.63
2018-07-20T06:13:57.756Z,13.30
2018-07-20T06:16:26.216Z,12.13
2018-07-20T06:18:54.648Z,14.43
2018-07-20T06:21:23.084Z,14.23
2018-07-20T06:23:51.597Z,14.33
2018-07-20T06:26:19.976Z,12.90
2018-07-20T06:28:48.390Z,14.30
2018-07-20T06:31:16.800Z,12.30
2018-07-20T06:33:45.247Z,12.97
2018-07-20T06:36:13.688Z,14.47
2018-07-20T06:38:42.212Z,17.50
2018-07-20T06:41:10.668Z,17.93
2018-07-20T06:43:43.904Z,14.00
2018-07-20T06:46:12.442Z,13.77
2018-07-20T06:48:40.824Z,15.20
2018-07-20T06:51:09.610Z,14.07
2018-07-20T06:53:38.122Z,14.60
2018-07-20T06:56:06.556Z,14.33
2018-07-20T06:58:35.016Z,18.40
2018-07-20T07:01:03.611Z,13.23
2018-07-20T07:03:31.981Z,12.87
2018-07-20T07:06:00.432Z,14.83
2018-07-20T07:08:28.852Z,14.93
2018-07-20T07:10:57.233Z,14.53
2018-07-20T07:13:25.713Z,17.03
2018-07-20T07:15:54.165Z,13.97
2018-07-20T07:18:22.600Z,13.03
2018-07-20T07:20:51.156Z,14.47
2018-07-20T07:23:19.552Z,15.57
2018-07-20T07:25:48.071Z,17.40
2018-07-20T07:28:17.005Z,14.43
2018-07-20T07:30:45.372Z,13.80
2018-07-20T07:33:13.836Z,15.20
2018-07-20T07:35:42.322Z,16.23
2018-07-20T07:38:10.728Z,15.67
2018-07-20T07:40:39.141Z,14.33
2018-07-20T07:43:07.680Z,14.87
2018-07-20T07:45:36.099Z,20.43
2018-07-20T07:48:04.668Z,15.77
2018-07-20T07:50:33.110Z,17.40
2018-07-20T07:53:01.635Z,17.10
2018-07-20T07:55:30.048Z,17.63
2018-07-20T07:57:58.512Z,20.53
2018-07-20T08:00:26.914Z,17.13
2018-07-20T08:02:55.383Z,15.03
2018-07-20T08:05:23.804Z,16.50
2018-07-20T08:07:52.209Z,16.73
2018-07-20T08:10:20.625Z,19.23
2018-07-20T08:12:49.247Z,20.33
2018-07-20T08:15:17.675Z,18.53
2018-07-20T08:17:46.217Z,23.20
2018-07-20T08:20:14.655Z,19.20
2018-07-20T08:22:43.076Z,17.00
2018-07-20T08:25:12.007Z,23.20
2018-07-20T08:27:40.459Z,19.17
2018-07-20T08:30:08.929Z,15.57
2018-07-20T08:32:37.337Z,15.40
2018-07-20T08:35:06.019Z,14.93
2018-07-20T08:37:34.467Z,16.07
2018-07-20T08:40:02.885Z,15.43
2018-07-20T08:42:31.279Z,17.67
2018-07-20T08:44:59.707Z,19.27
2018-07-20T08:47:28.143Z,17.90
2018-07-20T08:49:56.615Z,16.07
2018-07-20T08:52:25.040Z,15.83
2018-07-20T08:54:54.886Z,19.13
2018-07-20T08:57:23.285Z,15.93
2018-07-20T08:59:51.746Z,19.40
2018-07-20T09:02:20.139Z,16.93
2018-07-20T09:04:48.592Z,18.60
2018-07-20T09:07:17.075Z,18.63
2018-07-20T09:09:45.507Z,14.83
2018-07-20T09:12:13.955Z,15.57
2018-07-20T09:14:42.451Z,15.47
2018-07-20T09:17:11.092Z,18.67
2018-07-20T09:19:39.530Z,15.50
2018-07-20T09:22:08.104Z,24.00
2018-07-20T09:24:37.039Z,17.83
2018-07-20T09:27:05.489Z,17.10
2018-07-20T09:29:33.909Z,23.57
2018-07-20T09:32:02.398Z,14.60
2018-07-20T09:34:30.820Z,14.93
2018-07-20T09:36:59.223Z,15.83
2018-07-20T09:39:27.601Z,14.20
2018-07-20T09:41:56.001Z,17.77
2018-07-20T09:44:24.462Z,11.30
2018-07-20T09:46:52.845Z,11.20
2018-07-20T09:49:21.253Z,14.23
2018-07-20T09:51:49.708Z,17.10
2018-07-20T09:54:18.473Z,10.57
2018-07-20T09:56:46.873Z,13.13
2018-07-20T09:59:15.272Z,11.47
2018-07-20T10:01:43.707Z,11.47
2018-07-20T10:04:12.227Z,13.37
2018-07-20T10:06:40.784Z,15.60
2018-07-20T10:09:11.192Z,14.83
2018-07-20T10:11:39.641Z,11.30
2018-07-20T10:14:08.127Z,14.60
2018-07-20T10:16:36.665Z,12.20
2018-07-20T10:19:05.485Z,12.43
2018-07-20T10:21:33.833Z,15.17
2018-07-20T10:24:02.241Z,13.27
2018-07-20T10:26:30.663Z,13.10
2018-07-20T10:28:59.637Z,14.13
2018-07-20T10:31:28.036Z,15.47
2018-07-20T10:33:56.563Z,11.13
2018-07-20T10:36:24.999Z,11.57
2018-07-20T10:38:53.415Z,10.37
2018-07-20T10:41:22.299Z,11.30
2018-07-20T10:43:50.771Z,10.53
2018-07-20T10:46:19.283Z,7.93
2018-07-20T10:48:47.739Z,25.10
2018-07-20T10:51:16.297Z,12.93
2018-07-20T10:53:44.747Z,9.57
2018-07-20T10:56:13.139Z,10.30
2018-07-20T10:58:44.062Z,9.47
2018-07-20T11:01:12.572Z,8.60
2018-07-20T11:03:42.135Z,13.07
2018-07-20T11:06:10.671Z,8.80
2018-07-20T11:08:39.157Z,10.13
2018-07-20T11:11:08.147Z,10.93
2018-07-20T11:13:36.713Z,12.57
2018-07-20T11:16:05.118Z,9.57
2018-07-20T11:18:34.071Z,8.00
2018-07-20T11:21:02.776Z,12.67
2018-07-20T11:23:31.335Z,14.73
2018-07-20T11:25:59.839Z,10.40
2018-07-20T11:28:28.331Z,7.67
2018-07-20T11:30:56.749Z,10.83
2018-07-20T11:33:25.162Z,10.07
2018-07-20T11:35:53.573Z,8.37
2018-07-20T11:38:22.087Z,10.60
2018-07-20T11:40:50.592Z,8.90
2018-07-20T11:43:19.017Z,12.60
2018-07-20T11:45:47.489Z,12.57
2018-07-20T11:48:15.920Z,11.27
2018-07-20T11:50:44.338Z,14.87
2018-07-20T11:53:12.770Z,17.07
2018-07-20T11:55:41.173Z,9.87
2018-07-20T11:58:09.617Z,10.13
2018-07-20T12:00:38.136Z,10.80
2018-07-20T12:03:06.633Z,11.83
2018-07-20T12:05:35.047Z,9.70
2018-07-20T12:08:03.539Z,11.07
2018-07-20T12:10:31.942Z,13.70
2018-07-20T12:13:00.381Z,11.53
2018-07-20T12:15:28.777Z,13.43
2018-07-20T12:17:57.270Z,12.50
2018-07-20T12:20:25.747Z,10.67
2018-07-20T12:22:54.217Z,12.50
2018-07-20T12:25:22.652Z,12.90
2018-07-20T12:27:51.088Z,14.87
2018-07-20T12:30:19.540Z,12.53
2018-07-20T12:32:48.050Z,15.67
2018-07-20T12:35:16.496Z,12.70
2018-07-20T12:37:44.916Z,13.63
2018-07-20T12:40:13.316Z,14.23
2018-07-20T12:42:41.743Z,13.43
2018-07-20T12:45:10.152Z,14.67
2018-07-20T12:47:38.589Z,11.70
2018-07-20T12:50:07.062Z,12.17
2018-07-20T12:52:35.481Z,10.70
2018-07-20T12:55:03.963Z,12.07
2018-07-20T12:57:32.395Z,11.17
2018-07-20T13:00:01.705Z,13.20
2018-07-20T13:02:30.167Z,10.60
2018-07-20T13:04:58.595Z,17.00
2018-07-20T13:07:26.995Z,12.90
2018-07-20T13:09:55.533Z,12.70
2018-07-20T13:12:23.981Z,9.03
2018-07-20T13:14:52.396Z,10.30
2018-07-20T13:17:20.820Z,9.93
2018-07-20T13:19:50.417Z,13.40
2018-07-20T13:22:19.044Z,9.73
2018-07-20T13:24:47.481Z,14.10
2018-07-20T13:27:16.513Z,11.57
2018-07-20T13:29:50.381Z,11.10
2018-07-20T13:32:18.779Z,11.00
2018-07-20T13:34:47.202Z,10.33
2018-07-20T13:37:15.619Z,20.47
2018-07-20T13:39:44.187Z,13.13
2018-07-20T13:42:12.613Z,14.63
2018-07-20T13:44:41.068Z,14.10
2018-07-20T13:47:09.596Z,11.17
2018-07-20T13:49:37.775Z,10.33
2018-07-20T13:52:06.396Z,12.20
2018-07-20T13:54:34.879Z,12.60
2018-07-20T13:57:04.329Z,18.73
2018-07-20T13:59:32.749Z,13.73
2018-07-20T14:02:01.248Z,12.57
2018-07-20T14:04:29.659Z,11.77
2018-07-20T14:06:58.097Z,11.93
2018-07-20T14:09:26.520Z,12.93
2018-07-20T14:11:54.968Z,14.50
2018-07-20T14:14:24.155Z,12.80
2018-07-20T14:16:52.621Z,15.17
2018-07-20T14:19:22.076Z,10.50
2018-07-20T14:21:50.614Z,11.30
2018-07-20T14:24:19.034Z,13.50
2018-07-20T14:26:47.520Z,13.63
2018-07-20T14:29:16.040Z,12.57
2018-07-20T14:31:44.572Z,11.40
2018-07-20T14:34:12.869Z,14.07
2018-07-20T14:36:54.506Z,10.73
2018-07-20T14:39:32.417Z,11.73
2018-07-20T14:42:01.000Z,15.27
2018-07-20T14:44:38.476Z,12.77
2018-07-20T14:47:07.068Z,12.43
2018-07-20T14:49:35.572Z,13.73
2018-07-20T14:52:04.027Z,12.30
2018-07-20T14:54:36.676Z,11.43
2018-07-20T14:57:07.248Z,11.93
2018-07-20T14:59:47.361Z,10.43
2018-07-20T15:02:16.014Z,11.37
2018-07-20T15:04:44.493Z,11.10
2018-07-20T15:07:13.619Z,14.63
2018-07-20T15:09:43.223Z,14.50
2018-07-20T15:12:11.966Z,11.50
2018-07-20T15:14:40.329Z,10.03
2018-07-20T15:17:08.737Z,12.20
2018-07-20T15:19:38.036Z,10.07
2018-07-20T15:22:06.847Z,15.93
2018-07-20T15:24:35.779Z,10.93
2018-07-20T15:27:04.451Z,11.80
2018-07-20T15:29:32.891Z,11.20
2018-07-20T15:32:01.444Z,11.00
2018-07-20T15:34:29.859Z,12.07
2018-07-20T15:36:58.369Z,10.60
2018-07-20T15:39:26.796Z,12.53
2018-07-20T15:41:55.196Z,11.27
2018-07-20T15:44:23.606Z,8.93
2018-07-20T15:46:52.464Z,10.20
2018-07-20T15:49:20.619Z,12.40
2018-07-20T15:53:35.462Z,10.10
2018-07-20T15:54:17.850Z,10.13
2018-07-20T15:56:46.198Z,9.53
2018-07-20T15:59:14.592Z,10.13
2018-07-20T16:01:42.988Z,10.53
2018-07-20T16:04:11.384Z,8.50
2018-07-20T16:06:39.836Z,11.57
2018-07-20T16:09:10.340Z,10.23
2018-07-20T16:11:38.843Z,12.93
2018-07-20T16:14:07.277Z,12.37
2018-07-20T16:16:35.900Z,11.80
2018-07-20T16:19:04.534Z,9.03
2018-07-20T16:21:33.145Z,10.83
2018-07-20T16:24:01.631Z,9.10
2018-07-20T16:26:30.290Z,11.07
2018-07-20T16:28:58.768Z,11.00
2018-07-20T16:31:28.092Z,13.03
2018-07-20T16:33:56.674Z,11.43
2018-07-20T16:36:25.108Z,12.90
2018-07-20T16:38:53.531Z,12.73
2018-07-20T16:41:22.049Z,11.37
2018-07-20T16:43:50.468Z,18.50
2018-07-20T16:46:19.353Z,11.70
2018-07-20T16:48:47.760Z,10.33
2018-07-20T16:51:16.189Z,10.27
2018-07-20T16:53:44.637Z,11.13
2018-07-20T16:56:13.076Z,11.10
2018-07-20T16:58:41.614Z,9.97
2018-07-20T17:01:10.577Z,8.60
2018-07-20T17:03:39.025Z,11.43
2018-07-20T17:06:08.832Z,9.93
2018-07-20T17:08:37.336Z,10.30
2018-07-20T17:11:08.645Z,9.30
2018-07-20T17:13:37.377Z,12.10
2018-07-20T17:16:06.031Z,9.90
2018-07-20T17:18:34.580Z,10.47
2018-07-20T17:21:25.353Z,17.00
2018-07-20T17:23:54.012Z,9.60
2018-07-20T17:26:22.648Z,11.63
2018-07-20T17:28:51.155Z,8.50
2018-07-20T17:31:19.572Z,8.70
2018-07-20T17:33:48.182Z,8.20
2018-07-20T17:36:16.652Z,11.70
2018-07-20T17:38:45.069Z,9.60
2018-07-20T17:41:13.460Z,11.93
2018-07-20T17:43:41.864Z,12.13
2018-07-20T17:46:10.273Z,8.73
2018-07-20T17:48:38.771Z,9.00
2018-07-20T17:51:07.256Z,8.60
2018-07-20T17:53:36.123Z,8.17
2018-07-20T17:56:04.530Z,8.40
2018-07-20T17:58:33.333Z,8.13
2018-07-20T18:01:01.809Z,18.20
2018-07-20T18:03:30.366Z,14.20
2018-07-20T18:05:58.816Z,77.70
2018-07-20T18:08:27.213Z,142.33
2018-07-20T18:10:55.821Z,91.80
2018-07-20T18:13:24.352Z,109.20
2018-07-20T18:15:53.260Z,83.40
2018-07-20T18:18:21.680Z,60.07
2018-07-20T18:20:50.081Z,143.53
2018-07-20T18:23:18.496Z,101.63
2018-07-20T18:25:47.028Z,73.20
2018-07-20T18:28:15.574Z,90.03
2018-07-20T18:30:52.987Z,60.13
2018-07-20T18:33:21.603Z,106.40
2018-07-20T18:35:50.044Z,97.03
2018-07-20T18:38:18.473Z,36.60
2018-07-20T18:40:47.041Z,35.70
2018-07-20T18:43:15.451Z,31.70
2018-07-20T18:45:43.943Z,25.33
2018-07-20T18:48:12.424Z,36.97
2018-07-20T18:50:40.931Z,15.17
2018-07-20T18:53:09.362Z,19.67
2018-07-20T18:55:37.808Z,32.20
2018-07-20T18:58:06.552Z,26.33
2018-07-20T19:00:35.015Z,20.93
2018-07-20T19:03:03.463Z,27.53
2018-07-20T19:05:31.935Z,20.83
2018-07-20T19:08:00.395Z,13.70
2018-07-20T19:10:28.803Z,27.10
2018-07-20T19:12:57.249Z,18.77
2018-07-20T19:15:26.851Z,21.43
2018-07-20T19:17:55.331Z,15.07
2018-07-20T19:20:23.725Z,14.17
2018-07-20T19:22:52.432Z,13.73
2018-07-20T19:25:20.897Z,13.23
2018-07-20T19:27:49.353Z,15.43
2018-07-20T19:30:17.783Z,19.83
2018-07-20T19:32:46.428Z,11.47
2018-07-20T19:35:14.912Z,10.00
2018-07-20T19:37:43.471Z,11.50
2018-07-20T19:40:11.867Z,11.07
2018-07-20T19:42:40.263Z,14.73
2018-07-20T19:45:08.805Z,10.97
2018-07-20T19:47:37.432Z,11.43
2018-07-20T19:50:06.113Z,11.70
2018-07-20T19:52:34.575Z,11.50
2018-07-20T19:55:03.051Z,11.17
2018-07-20T19:57:31.427Z,14.70
2018-07-20T19:59:59.879Z,11.70
2018-07-20T20:02:28.391Z,19.70
2018-07-20T20:04:58.149Z,13.17
2018-07-20T20:07:26.997Z,12.50
2018-07-20T20:09:55.440Z,15.30
2018-07-20T20:12:23.980Z,30.40
2018-07-20T20:14:52.384Z,15.83
2018-07-20T20:17:20.843Z,13.40
2018-07-20T20:19:49.776Z,11.90
2018-07-20T20:22:18.256Z,13.73
2018-07-20T20:24:46.668Z,16.20
2018-07-20T20:27:15.142Z,14.80
2018-07-20T20:29:43.608Z,14.73
2018-07-20T20:32:12.100Z,11.30
2018-07-20T20:34:40.840Z,16.03
2018-07-20T20:37:09.476Z,16.93
2018-07-20T20:39:37.924Z,13.53
2018-07-20T20:42:06.510Z,16.03
2018-07-20T20:44:34.933Z,13.97
2018-07-20T20:47:03.467Z,36.70
2018-07-20T20:49:32.140Z,16.50
2018-07-20T20:52:00.603Z,13.13
2018-07-20T20:54:29.047Z,15.27
2018-07-20T20:56:57.683Z,12.63
2018-07-20T20:59:26.128Z,13.30
2018-07-20T21:01:54.800Z,11.73
2018-07-20T21:04:23.640Z,14.40
2018-07-20T21:06:52.067Z,14.30
2018-07-20T21:09:20.514Z,18.87
2018-07-20T21:11:49.058Z,12.80
2018-07-20T21:14:21.375Z,11.60
2018-07-20T21:16:50.053Z,13.23
2018-07-20T21:19:18.508Z,13.40
2018-07-20T21:21:46.935Z,15.60
2018-07-20T21:24:15.365Z,13.33
2018-07-20T21:26:43.906Z,15.03
2018-07-20T21:29:12.757Z,11.27
2018-07-20T21:31:41.152Z,14.20
2018-07-20T21:34:10.171Z,11.80
2018-07-20T21:36:39.105Z,11.80
2018-07-20T21:39:09.775Z,10.30
2018-07-20T21:41:38.555Z,14.00
2018-07-20T21:44:06.995Z,13.50
2018-07-20T21:46:35.436Z,11.33
2018-07-20T21:49:03.878Z,9.97
2018-07-20T21:51:33.195Z,13.27
2018-07-20T21:54:01.682Z,13.37
2018-07-20T21:56:30.383Z,11.67
2018-07-20T21:58:58.924Z,10.37
2018-07-20T22:01:27.628Z,9.17
2018-07-20T22:03:56.040Z,11.33
2018-07-20T22:06:24.560Z,13.33
2018-07-20T22:08:53.000Z,11.93
2018-07-20T22:11:21.411Z,10.17
2018-07-20T22:13:50.060Z,15.13
2018-07-20T22:16:18.988Z,11.43
2018-07-20T22:18:47.391Z,10.00
2018-07-20T22:21:16.278Z,8.97
2018-07-20T22:23:44.848Z,9.10
2018-07-20T22:26:13.720Z,11.87
2018-07-20T22:28:42.164Z,11.03
2018-07-20T22:31:10.718Z,10.97
2018-07-20T22:33:39.095Z,10.37
2018-07-20T22:36:07.491Z,12.30
2018-07-20T22:38:35.912Z,12.70
2018-07-20T22:41:04.550Z,14.67
2018-07-20T22:43:32.962Z,13.00
2018-07-20T22:46:01.378Z,10.23
2018-07-20T22:48:29.767Z,10.50
2018-07-20T22:50:58.342Z,12.13
2018-07-20T22:53:26.746Z,10.50
2018-07-20T22:55:55.223Z,13.70
2018-07-20T22:58:23.674Z,9.67
2018-07-20T23:00:52.161Z,11.17
2018-07-20T23:03:20.572Z,13.67
2018-07-20T23:05:49.970Z,12.07
2018-07-20T23:08:18.350Z,10.30
2018-07-20T23:10:46.772Z,15.73
2018-07-20T23:13:15.898Z,12.00
2018-07-20T23:15:44.307Z,13.17
2018-07-20T23:18:12.783Z,10.83
2018-07-20T23:20:41.226Z,13.10
2018-07-20T23:23:09.606Z,8.30
2018-07-20T23:25:37.984Z,11.00
2018-07-20T23:28:06.838Z,12.30
2018-07-20T23:30:35.269Z,10.40
2018-07-20T23:33:03.705Z,12.63
2018-07-20T23:35:32.080Z,13.87
2018-07-20T23:38:00.529Z,10.67
2018-07-20T23:40:28.926Z,10.73
2018-07-20T23:42:57.363Z,12.40
2018-07-20T23:45:25.738Z,10.63
2018-07-20T23:47:54.167Z,13.37
2018-07-20T23:50:22.600Z,16.47
2018-07-20T23:52:51.079Z,11.60
2018-07-20T23:55:19.510Z,10.30
2018-07-20T23:57:47.934Z,10.90
